sensor_id;sensor_type;location;lat;lon;timestamp;temperature;humidity
14741;DHT22;7462;53.530;9.414;2022-12-18T00:00:06;-4.10;99.90
14741;DHT22;7462;53.530;9.414;2022-12-18T00:02:39;-4.00;99.90
14741;DHT22;7462;53.530;9.414;2022-12-18T00:05:07;-4.00;99.90
14741;DHT22;7462;53.530;9.414;2022-12-18T00:07:36;-4.00;99.90
14741;DHT22;7462;53.530;9.414;2022-12-18T00:10:07;-4.10;99.90
14741;DHT22;7462;53.530;9.414;2022-12-18T00:12:35;-4.10;99.90
14741;DHT22;7462;53.530;9.414;2022-12-18T00:15:04;-4.10;99.90
14741;DHT22;7462;53.530;9.414;2022-12-18T00:17:32;-4.10;99.90
14741;DHT22;7462;53.530;9.414;2022-12-18T00:20:00;-4.10;99.90
14741;DHT22;7462;53.530;9.414;2022-12-18T00:22:28;-4.20;99.90
14741;DHT22;7462;53.530;9.414;2022-12-18T00:24:56;-4.00;99.90
14741;DHT22;7462;53.530;9.414;2022-12-18T00:27:25;-4.10;99.90
14741;DHT22;7462;53.530;9.414;2022-12-18T00:29:53;-4.10;99.90
14741;DHT22;7462;53.530;9.414;2022-12-18T00:32:21;-4.20;99.90
14741;DHT22;7462;53.530;9.414;2022-12-18T00:34:49;-4.20;99.90
14741;DHT22;7462;53.530;9.414;2022-12-18T00:37:17;-4.20;99.90
14741;DHT22;7462;53.530;9.414;2022-12-18T00:39:50;-4.10;99.90
14741;DHT22;7462;53.530;9.414;2022-12-18T00:42:19;-4.20;99.90
14741;DHT22;7462;53.530;9.414;2022-12-18T00:45:07;-4.20;99.90
14741;DHT22;7462;53.530;9.414;2022-12-18T00:47:39;-4.10;99.90
14741;DHT22;7462;53.530;9.414;2022-12-18T00:50:08;-4.10;99.90
14741;DHT22;7462;53.530;9.414;2022-12-18T00:52:36;-4.20;99.90
14741;DHT22;7462;53.530;9.414;2022-12-18T00:55:08;-4.20;99.90
14741;DHT22;7462;53.530;9.414;2022-12-18T00:57:36;-4.20;99.90
14741;DHT22;7462;53.530;9.414;2022-12-18T01:00:10;-4.20;99.90
14741;DHT22;7462;53.530;9.414;2022-12-18T01:02:40;-4.20;99.90
14741;DHT22;7462;53.530;9.414;2022-12-18T01:05:10;-4.20;99.90
14741;DHT22;7462;53.530;9.414;2022-12-18T01:07:39;-4.30;99.90
14741;DHT22;7462;53.530;9.414;2022-12-18T01:10:09;-4.30;99.90
14741;DHT22;7462;53.530;9.414;2022-12-18T01:12:37;-4.30;99.90
14741;DHT22;7462;53.530;9.414;2022-12-18T01:15:11;-4.30;99.90
14741;DHT22;7462;53.530;9.414;2022-12-18T01:17:39;-4.30;99.90
14741;DHT22;7462;53.530;9.414;2022-12-18T01:20:09;-4.20;99.90
14741;DHT22;7462;53.530;9.414;2022-12-18T01:22:37;-4.20;99.90
14741;DHT22;7462;53.530;9.414;2022-12-18T01:25:07;-4.20;99.90
14741;DHT22;7462;53.530;9.414;2022-12-18T01:27:35;-4.20;99.90
14741;DHT22;7462;53.530;9.414;2022-12-18T01:30:04;-4.20;99.90
14741;DHT22;7462;53.530;9.414;2022-12-18T01:32:34;-4.10;99.90
14741;DHT22;7462;53.530;9.414;2022-12-18T01:35:02;-4.20;99.90
14741;DHT22;7462;53.530;9.414;2022-12-18T01:37:30;-4.30;99.90
14741;DHT22;7462;53.530;9.414;2022-12-18T01:39:59;-4.30;99.90
14741;DHT22;7462;53.530;9.414;2022-12-18T01:42:27;-4.30;99.90
14741;DHT22;7462;53.530;9.414;2022-12-18T01:44:58;-4.30;99.90
14741;DHT22;7462;53.530;9.414;2022-12-18T01:47:30;-4.20;99.90
14741;DHT22;7462;53.530;9.414;2022-12-18T01:50:03;-4.20;99.90
14741;DHT22;7462;53.530;9.414;2022-12-18T01:52:33;-4.30;99.90
14741;DHT22;7462;53.530;9.414;2022-12-18T01:55:04;-4.30;99.90
14741;DHT22;7462;53.530;9.414;2022-12-18T01:57:32;-4.30;99.90
14741;DHT22;7462;53.530;9.414;2022-12-18T02:00:08;-4.20;99.90
14741;DHT22;7462;53.530;9.414;2022-12-18T02:02:40;-4.30;99.90
14741;DHT22;7462;53.530;9.414;2022-12-18T02:05:12;-4.30;99.90
14741;DHT22;7462;53.530;9.414;2022-12-18T02:07:48;-4.30;99.90
14741;DHT22;7462;53.530;9.414;2022-12-18T02:10:24;-4.30;99.90
14741;DHT22;7462;53.530;9.414;2022-12-18T02:12:59;-4.20;99.90
14741;DHT22;7462;53.530;9.414;2022-12-18T02:15:34;-4.30;99.90
14741;DHT22;7462;53.530;9.414;2022-12-18T02:18:08;-4.30;99.90
14741;DHT22;7462;53.530;9.414;2022-12-18T02:20:43;-4.30;99.90
14741;DHT22;7462;53.530;9.414;2022-12-18T02:23:24;-4.30;99.90
14741;DHT22;7462;53.530;9.414;2022-12-18T02:26:15;-4.40;99.90
14741;DHT22;7462;53.530;9.414;2022-12-18T02:28:53;-4.40;99.90
14741;DHT22;7462;53.530;9.414;2022-12-18T02:31:27;-4.40;99.90
14741;DHT22;7462;53.530;9.414;2022-12-18T02:34:00;-4.40;99.90
14741;DHT22;7462;53.530;9.414;2022-12-18T02:36:36;-4.40;99.90
14741;DHT22;7462;53.530;9.414;2022-12-18T02:39:07;-4.40;99.90
14741;DHT22;7462;53.530;9.414;2022-12-18T02:41:39;-4.40;99.90
14741;DHT22;7462;53.530;9.414;2022-12-18T02:44:10;-4.40;99.90
14741;DHT22;7462;53.530;9.414;2022-12-18T02:46:41;-4.40;99.90
14741;DHT22;7462;53.530;9.414;2022-12-18T02:49:22;-4.40;99.90
14741;DHT22;7462;53.530;9.414;2022-12-18T02:52:03;-4.40;99.90
14741;DHT22;7462;53.530;9.414;2022-12-18T02:54:42;-4.40;99.90
14741;DHT22;7462;53.530;9.414;2022-12-18T02:57:21;-4.40;99.90
14741;DHT22;7462;53.530;9.414;2022-12-18T02:59:58;-4.30;99.90
14741;DHT22;7462;53.530;9.414;2022-12-18T03:02:45;-4.30;99.90
14741;DHT22;7462;53.530;9.414;2022-12-18T03:05:19;-4.20;99.90
14741;DHT22;7462;53.530;9.414;2022-12-18T03:07:53;-4.30;99.90
14741;DHT22;7462;53.530;9.414;2022-12-18T03:10:30;-4.40;99.90
14741;DHT22;7462;53.530;9.414;2022-12-18T03:13:05;-4.40;99.90
14741;DHT22;7462;53.530;9.414;2022-12-18T03:15:38;-4.40;99.90
14741;DHT22;7462;53.530;9.414;2022-12-18T03:18:15;-4.50;99.90
14741;DHT22;7462;53.530;9.414;2022-12-18T03:20:44;-4.50;99.90
14741;DHT22;7462;53.530;9.414;2022-12-18T03:23:22;-4.50;99.90
14741;DHT22;7462;53.530;9.414;2022-12-18T03:25:55;-4.50;99.90
14741;DHT22;7462;53.530;9.414;2022-12-18T03:28:33;-4.50;99.90
14741;DHT22;7462;53.530;9.414;2022-12-18T03:31:05;-4.50;99.90
14741;DHT22;7462;53.530;9.414;2022-12-18T03:33:38;-4.50;99.90
14741;DHT22;7462;53.530;9.414;2022-12-18T03:36:09;-4.50;99.90
14741;DHT22;7462;53.530;9.414;2022-12-18T03:38:37;-4.60;99.90
14741;DHT22;7462;53.530;9.414;2022-12-18T03:41:15;-4.60;99.90
14741;DHT22;7462;53.530;9.414;2022-12-18T03:44:11;-4.60;99.90
14741;DHT22;7462;53.530;9.414;2022-12-18T03:46:49;-4.50;99.90
14741;DHT22;7462;53.530;9.414;2022-12-18T03:49:24;-4.60;99.90
14741;DHT22;7462;53.530;9.414;2022-12-18T03:52:01;-4.60;99.90
14741;DHT22;7462;53.530;9.414;2022-12-18T03:54:33;-4.60;99.90
14741;DHT22;7462;53.530;9.414;2022-12-18T03:57:17;-4.60;99.90
14741;DHT22;7462;53.530;9.414;2022-12-18T03:59:53;-4.60;99.90
14741;DHT22;7462;53.530;9.414;2022-12-18T04:02:27;-4.70;99.90
14741;DHT22;7462;53.530;9.414;2022-12-18T04:05:02;-4.70;99.90
14741;DHT22;7462;53.530;9.414;2022-12-18T04:07:32;-4.70;99.90
14741;DHT22;7462;53.530;9.414;2022-12-18T04:10:02;-4.70;99.90
14741;DHT22;7462;53.530;9.414;2022-12-18T04:12:31;-4.70;99.90
14741;DHT22;7462;53.530;9.414;2022-12-18T04:15:01;-4.70;99.90
14741;DHT22;7462;53.530;9.414;2022-12-18T04:17:29;-4.70;99.90
14741;DHT22;7462;53.530;9.414;2022-12-18T04:19:58;-4.80;99.90
14741;DHT22;7462;53.530;9.414;2022-12-18T04:22:26;-4.80;99.90
14741;DHT22;7462;53.530;9.414;2022-12-18T04:24:58;-4.70;99.90
14741;DHT22;7462;53.530;9.414;2022-12-18T04:27:34;-4.80;99.90
14741;DHT22;7462;53.530;9.414;2022-12-18T04:30:06;-4.70;99.90
14741;DHT22;7462;53.530;9.414;2022-12-18T04:32:35;-4.80;99.90
14741;DHT22;7462;53.530;9.414;2022-12-18T04:35:04;-4.80;99.90
14741;DHT22;7462;53.530;9.414;2022-12-18T04:37:35;-4.80;99.90
14741;DHT22;7462;53.530;9.414;2022-12-18T04:40:05;-4.80;99.90
14741;DHT22;7462;53.530;9.414;2022-12-18T04:42:39;-4.80;99.90
14741;DHT22;7462;53.530;9.414;2022-12-18T04:45:09;-4.90;99.90
14741;DHT22;7462;53.530;9.414;2022-12-18T04:47:37;-4.90;99.90
14741;DHT22;7462;53.530;9.414;2022-12-18T04:50:06;-4.90;99.90
14741;DHT22;7462;53.530;9.414;2022-12-18T04:52:34;-4.90;99.90
14741;DHT22;7462;53.530;9.414;2022-12-18T04:55:04;-4.80;99.90
14741;DHT22;7462;53.530;9.414;2022-12-18T04:57:32;-4.90;99.90
14741;DHT22;7462;53.530;9.414;2022-12-18T05:00:03;-4.90;99.90
14741;DHT22;7462;53.530;9.414;2022-12-18T05:02:34;-4.90;99.90
14741;DHT22;7462;53.530;9.414;2022-12-18T05:05:02;-4.90;99.90
14741;DHT22;7462;53.530;9.414;2022-12-18T05:07:30;-4.90;99.90
14741;DHT22;7462;53.530;9.414;2022-12-18T05:09:58;-4.90;99.90
14741;DHT22;7462;53.530;9.414;2022-12-18T05:12:26;-4.90;99.90
14741;DHT22;7462;53.530;9.414;2022-12-18T05:14:54;-4.90;99.90
14741;DHT22;7462;53.530;9.414;2022-12-18T05:17:22;-4.90;99.90
14741;DHT22;7462;53.530;9.414;2022-12-18T05:19:51;-4.80;99.90
14741;DHT22;7462;53.530;9.414;2022-12-18T05:22:19;-4.90;99.90
14741;DHT22;7462;53.530;9.414;2022-12-18T05:24:47;-4.90;99.90
14741;DHT22;7462;53.530;9.414;2022-12-18T05:27:15;-4.80;99.90
14741;DHT22;7462;53.530;9.414;2022-12-18T05:29:46;-4.70;99.90
14741;DHT22;7462;53.530;9.414;2022-12-18T05:32:14;-4.80;99.90
14741;DHT22;7462;53.530;9.414;2022-12-18T05:34:42;-4.60;99.90
14741;DHT22;7462;53.530;9.414;2022-12-18T05:37:11;-4.80;99.90
14741;DHT22;7462;53.530;9.414;2022-12-18T05:39:40;-4.90;99.90
14741;DHT22;7462;53.530;9.414;2022-12-18T05:42:08;-4.90;99.90
14741;DHT22;7462;53.530;9.414;2022-12-18T05:44:36;-4.90;99.90
14741;DHT22;7462;53.530;9.414;2022-12-18T05:47:04;-4.90;99.90
14741;DHT22;7462;53.530;9.414;2022-12-18T05:49:32;-4.90;99.90
14741;DHT22;7462;53.530;9.414;2022-12-18T05:52:00;-4.90;99.90
14741;DHT22;7462;53.530;9.414;2022-12-18T05:54:30;-4.90;99.90
14741;DHT22;7462;53.530;9.414;2022-12-18T05:56:58;-4.90;99.90
14741;DHT22;7462;53.530;9.414;2022-12-18T05:59:26;-4.90;99.90
14741;DHT22;7462;53.530;9.414;2022-12-18T06:01:54;-4.90;99.90
14741;DHT22;7462;53.530;9.414;2022-12-18T06:04:23;-4.90;99.90
14741;DHT22;7462;53.530;9.414;2022-12-18T06:06:51;-4.90;99.90
14741;DHT22;7462;53.530;9.414;2022-12-18T06:09:19;-4.90;99.90
14741;DHT22;7462;53.530;9.414;2022-12-18T06:11:49;-5.00;99.90
14741;DHT22;7462;53.530;9.414;2022-12-18T06:14:18;-5.00;99.90
14741;DHT22;7462;53.530;9.414;2022-12-18T06:16:46;-5.00;99.90
14741;DHT22;7462;53.530;9.414;2022-12-18T06:19:15;-5.00;99.90
14741;DHT22;7462;53.530;9.414;2022-12-18T06:21:44;-4.90;99.90
14741;DHT22;7462;53.530;9.414;2022-12-18T06:24:12;-5.00;99.90
14741;DHT22;7462;53.530;9.414;2022-12-18T06:26:41;-4.90;99.90
14741;DHT22;7462;53.530;9.414;2022-12-18T06:29:10;-4.90;99.90
14741;DHT22;7462;53.530;9.414;2022-12-18T06:31:38;-4.90;99.90
14741;DHT22;7462;53.530;9.414;2022-12-18T06:34:06;-5.00;99.90
14741;DHT22;7462;53.530;9.414;2022-12-18T06:36:34;-5.00;99.90
14741;DHT22;7462;53.530;9.414;2022-12-18T06:39:03;-5.00;99.90
14741;DHT22;7462;53.530;9.414;2022-12-18T06:41:31;-5.00;99.90
14741;DHT22;7462;53.530;9.414;2022-12-18T06:43:59;-5.00;99.90
14741;DHT22;7462;53.530;9.414;2022-12-18T06:46:29;-5.00;99.90
14741;DHT22;7462;53.530;9.414;2022-12-18T06:48:57;-4.90;99.90
14741;DHT22;7462;53.530;9.414;2022-12-18T06:51:25;-4.90;99.90
14741;DHT22;7462;53.530;9.414;2022-12-18T06:53:53;-4.90;99.90
14741;DHT22;7462;53.530;9.414;2022-12-18T06:56:22;-4.90;99.90
14741;DHT22;7462;53.530;9.414;2022-12-18T06:58:50;-4.90;99.90
14741;DHT22;7462;53.530;9.414;2022-12-18T07:01:18;-4.90;99.90
14741;DHT22;7462;53.530;9.414;2022-12-18T07:03:51;-5.00;99.90
14741;DHT22;7462;53.530;9.414;2022-12-18T07:06:21;-5.00;99.90
14741;DHT22;7462;53.530;9.414;2022-12-18T07:08:50;-5.00;99.90
14741;DHT22;7462;53.530;9.414;2022-12-18T07:11:18;-5.00;99.90
14741;DHT22;7462;53.530;9.414;2022-12-18T07:13:46;-5.00;99.90
14741;DHT22;7462;53.530;9.414;2022-12-18T07:16:16;-5.00;99.90
14741;DHT22;7462;53.530;9.414;2022-12-18T07:18:52;-4.90;99.90
14741;DHT22;7462;53.530;9.414;2022-12-18T07:21:20;-5.00;99.90
14741;DHT22;7462;53.530;9.414;2022-12-18T07:23:49;-5.00;99.90
14741;DHT22;7462;53.530;9.414;2022-12-18T07:26:19;-4.80;99.90
14741;DHT22;7462;53.530;9.414;2022-12-18T07:28:47;-4.90;99.90
14741;DHT22;7462;53.530;9.414;2022-12-18T07:31:17;-5.00;99.90
14741;DHT22;7462;53.530;9.414;2022-12-18T07:33:48;-5.00;99.90
14741;DHT22;7462;53.530;9.414;2022-12-18T07:36:18;-5.00;99.90
14741;DHT22;7462;53.530;9.414;2022-12-18T07:38:46;-5.00;99.90
14741;DHT22;7462;53.530;9.414;2022-12-18T07:41:15;-5.10;99.90
14741;DHT22;7462;53.530;9.414;2022-12-18T07:43:43;-5.10;99.90
14741;DHT22;7462;53.530;9.414;2022-12-18T07:46:12;-5.10;99.90
14741;DHT22;7462;53.530;9.414;2022-12-18T07:48:41;-5.10;99.90
14741;DHT22;7462;53.530;9.414;2022-12-18T07:51:17;-5.00;99.90
14741;DHT22;7462;53.530;9.414;2022-12-18T07:53:45;-5.00;99.90
14741;DHT22;7462;53.530;9.414;2022-12-18T07:56:17;-5.00;99.90
14741;DHT22;7462;53.530;9.414;2022-12-18T07:58:56;-5.00;99.90
14741;DHT22;7462;53.530;9.414;2022-12-18T08:01:25;-4.90;99.90
14741;DHT22;7462;53.530;9.414;2022-12-18T08:03:53;-4.90;99.90
14741;DHT22;7462;53.530;9.414;2022-12-18T08:06:23;-4.90;99.90
14741;DHT22;7462;53.530;9.414;2022-12-18T08:08:51;-4.80;99.90
14741;DHT22;7462;53.530;9.414;2022-12-18T08:11:20;-4.90;99.90
14741;DHT22;7462;53.530;9.414;2022-12-18T08:13:48;-4.90;99.90
14741;DHT22;7462;53.530;9.414;2022-12-18T08:16:17;-4.90;99.90
14741;DHT22;7462;53.530;9.414;2022-12-18T08:18:47;-4.90;99.90
14741;DHT22;7462;53.530;9.414;2022-12-18T08:21:18;-4.90;99.90
14741;DHT22;7462;53.530;9.414;2022-12-18T08:23:49;-4.90;99.90
14741;DHT22;7462;53.530;9.414;2022-12-18T08:26:18;-4.80;99.90
14741;DHT22;7462;53.530;9.414;2022-12-18T08:28:48;-4.80;99.90
14741;DHT22;7462;53.530;9.414;2022-12-18T08:31:17;-4.80;99.90
14741;DHT22;7462;53.530;9.414;2022-12-18T08:33:47;-4.90;99.90
14741;DHT22;7462;53.530;9.414;2022-12-18T08:36:15;-4.90;99.90
14741;DHT22;7462;53.530;9.414;2022-12-18T08:38:43;-4.80;99.90
14741;DHT22;7462;53.530;9.414;2022-12-18T08:41:15;-4.70;99.90
14741;DHT22;7462;53.530;9.414;2022-12-18T08:43:43;-4.70;99.90
14741;DHT22;7462;53.530;9.414;2022-12-18T08:46:33;-4.60;99.90
14741;DHT22;7462;53.530;9.414;2022-12-18T08:49:02;-4.60;99.90
14741;DHT22;7462;53.530;9.414;2022-12-18T08:51:31;-4.30;99.90
14741;DHT22;7462;53.530;9.414;2022-12-18T08:53:59;-4.40;99.90
14741;DHT22;7462;53.530;9.414;2022-12-18T08:56:28;-4.40;99.90
14741;DHT22;7462;53.530;9.414;2022-12-18T08:58:57;-4.30;99.90
14741;DHT22;7462;53.530;9.414;2022-12-18T09:01:26;-4.30;99.90
14741;DHT22;7462;53.530;9.414;2022-12-18T09:03:54;-4.20;99.90
14741;DHT22;7462;53.530;9.414;2022-12-18T09:06:23;-4.30;99.90
14741;DHT22;7462;53.530;9.414;2022-12-18T09:08:52;-4.20;99.90
14741;DHT22;7462;53.530;9.414;2022-12-18T09:11:22;-4.30;99.90
14741;DHT22;7462;53.530;9.414;2022-12-18T09:13:52;-4.20;99.90
14741;DHT22;7462;53.530;9.414;2022-12-18T09:16:23;-4.10;99.90
14741;DHT22;7462;53.530;9.414;2022-12-18T09:18:58;-4.10;99.90
14741;DHT22;7462;53.530;9.414;2022-12-18T09:21:29;-4.10;99.90
14741;DHT22;7462;53.530;9.414;2022-12-18T09:24:01;-4.00;99.90
14741;DHT22;7462;53.530;9.414;2022-12-18T09:26:30;-4.00;99.90
14741;DHT22;7462;53.530;9.414;2022-12-18T09:29:00;-3.90;99.90
14741;DHT22;7462;53.530;9.414;2022-12-18T09:31:28;-3.90;99.90
14741;DHT22;7462;53.530;9.414;2022-12-18T09:33:56;-3.70;99.90
14741;DHT22;7462;53.530;9.414;2022-12-18T09:36:24;-3.70;99.90
14741;DHT22;7462;53.530;9.414;2022-12-18T09:38:52;-3.60;99.90
14741;DHT22;7462;53.530;9.414;2022-12-18T09:41:33;-3.50;99.90
14741;DHT22;7462;53.530;9.414;2022-12-18T09:44:11;-3.50;99.90
14741;DHT22;7462;53.530;9.414;2022-12-18T09:46:44;-3.50;99.90
14741;DHT22;7462;53.530;9.414;2022-12-18T09:49:17;-3.40;99.90
14741;DHT22;7462;53.530;9.414;2022-12-18T09:51:50;-3.20;99.90
14741;DHT22;7462;53.530;9.414;2022-12-18T09:54:23;-3.20;99.90
14741;DHT22;7462;53.530;9.414;2022-12-18T09:56:53;-3.20;99.90
14741;DHT22;7462;53.530;9.414;2022-12-18T09:59:26;-3.10;99.90
14741;DHT22;7462;53.530;9.414;2022-12-18T10:01:57;-3.00;99.90
14741;DHT22;7462;53.530;9.414;2022-12-18T10:04:28;-3.00;99.90
14741;DHT22;7462;53.530;9.414;2022-12-18T10:07:03;-2.90;99.90
14741;DHT22;7462;53.530;9.414;2022-12-18T10:09:41;-2.80;99.90
14741;DHT22;7462;53.530;9.414;2022-12-18T10:12:19;-2.80;99.90
14741;DHT22;7462;53.530;9.414;2022-12-18T10:14:53;-2.70;99.90
14741;DHT22;7462;53.530;9.414;2022-12-18T10:17:34;-2.60;99.90
14741;DHT22;7462;53.530;9.414;2022-12-18T10:20:10;-2.50;99.90
14741;DHT22;7462;53.530;9.414;2022-12-18T10:22:50;-2.40;99.90
14741;DHT22;7462;53.530;9.414;2022-12-18T10:25:22;-2.00;99.90
14741;DHT22;7462;53.530;9.414;2022-12-18T10:27:53;-1.70;99.90
14741;DHT22;7462;53.530;9.414;2022-12-18T10:30:25;-1.70;99.90
14741;DHT22;7462;53.530;9.414;2022-12-18T10:32:53;-1.80;99.90
14741;DHT22;7462;53.530;9.414;2022-12-18T10:35:24;-1.90;99.90
14741;DHT22;7462;53.530;9.414;2022-12-18T10:38:01;-1.80;99.90
14741;DHT22;7462;53.530;9.414;2022-12-18T10:40:29;-1.60;99.90
14741;DHT22;7462;53.530;9.414;2022-12-18T10:43:09;-1.50;99.90
14741;DHT22;7462;53.530;9.414;2022-12-18T10:45:40;-1.50;99.90
14741;DHT22;7462;53.530;9.414;2022-12-18T10:48:18;-1.60;99.90
14741;DHT22;7462;53.530;9.414;2022-12-18T10:50:49;-1.50;99.90
14741;DHT22;7462;53.530;9.414;2022-12-18T10:53:40;-1.50;99.90
14741;DHT22;7462;53.530;9.414;2022-12-18T10:56:10;-1.60;99.90
14741;DHT22;7462;53.530;9.414;2022-12-18T10:58:38;-1.60;99.90
14741;DHT22;7462;53.530;9.414;2022-12-18T11:01:11;-1.50;99.90
14741;DHT22;7462;53.530;9.414;2022-12-18T11:03:42;-1.50;99.90
14741;DHT22;7462;53.530;9.414;2022-12-18T11:06:12;-1.50;99.90
14741;DHT22;7462;53.530;9.414;2022-12-18T11:08:41;-1.40;99.90
14741;DHT22;7462;53.530;9.414;2022-12-18T11:11:19;-1.40;99.90
14741;DHT22;7462;53.530;9.414;2022-12-18T11:13:57;-1.40;99.90
14741;DHT22;7462;53.530;9.414;2022-12-18T11:16:28;-1.40;99.90
14741;DHT22;7462;53.530;9.414;2022-12-18T11:19:21;-1.40;99.90
14741;DHT22;7462;53.530;9.414;2022-12-18T11:21:52;-1.30;99.90
14741;DHT22;7462;53.530;9.414;2022-12-18T11:24:24;-1.40;99.90
14741;DHT22;7462;53.530;9.414;2022-12-18T11:26:54;-1.40;99.90
14741;DHT22;7462;53.530;9.414;2022-12-18T11:29:31;-1.40;99.90
14741;DHT22;7462;53.530;9.414;2022-12-18T11:32:35;-1.40;99.90
14741;DHT22;7462;53.530;9.414;2022-12-18T11:35:14;-1.30;99.90
14741;DHT22;7462;53.530;9.414;2022-12-18T11:37:46;-1.30;99.90
14741;DHT22;7462;53.530;9.414;2022-12-18T11:40:18;-1.30;99.90
14741;DHT22;7462;53.530;9.414;2022-12-18T11:42:52;-1.30;99.90
14741;DHT22;7462;53.530;9.414;2022-12-18T11:45:28;-1.30;99.90
14741;DHT22;7462;53.530;9.414;2022-12-18T11:48:03;-1.30;99.90
14741;DHT22;7462;53.530;9.414;2022-12-18T11:50:41;-1.30;99.90
14741;DHT22;7462;53.530;9.414;2022-12-18T11:53:11;-1.30;99.90
14741;DHT22;7462;53.530;9.414;2022-12-18T11:55:45;-1.30;99.90
14741;DHT22;7462;53.530;9.414;2022-12-18T11:58:22;-1.30;99.90
14741;DHT22;7462;53.530;9.414;2022-12-18T12:01:12;-1.20;99.90
14741;DHT22;7462;53.530;9.414;2022-12-18T12:03:59;-1.20;99.90
14741;DHT22;7462;53.530;9.414;2022-12-18T12:06:39;-1.30;99.90
14741;DHT22;7462;53.530;9.414;2022-12-18T12:09:15;-1.20;99.90
14741;DHT22;7462;53.530;9.414;2022-12-18T12:12:10;-1.20;99.90
14741;DHT22;7462;53.530;9.414;2022-12-18T12:14:48;-1.30;99.90
14741;DHT22;7462;53.530;9.414;2022-12-18T12:17:28;-1.40;99.90
14741;DHT22;7462;53.530;9.414;2022-12-18T12:20:06;-1.30;99.90
14741;DHT22;7462;53.530;9.414;2022-12-18T12:22:47;-1.30;99.90
14741;DHT22;7462;53.530;9.414;2022-12-18T12:25:28;-1.30;99.90
14741;DHT22;7462;53.530;9.414;2022-12-18T12:28:11;-1.30;99.90
14741;DHT22;7462;53.530;9.414;2022-12-18T12:30:50;-1.30;99.90
14741;DHT22;7462;53.530;9.414;2022-12-18T12:33:29;-1.10;99.90
14741;DHT22;7462;53.530;9.414;2022-12-18T12:36:07;-1.10;99.90
14741;DHT22;7462;53.530;9.414;2022-12-18T12:38:41;-1.20;99.90
14741;DHT22;7462;53.530;9.414;2022-12-18T12:41:20;-1.10;99.90
14741;DHT22;7462;53.530;9.414;2022-12-18T12:44:09;-1.10;99.90
14741;DHT22;7462;53.530;9.414;2022-12-18T12:46:41;-1.00;99.90
14741;DHT22;7462;53.530;9.414;2022-12-18T12:49:14;-1.00;99.90
14741;DHT22;7462;53.530;9.414;2022-12-18T12:51:47;-1.00;99.90
14741;DHT22;7462;53.530;9.414;2022-12-18T12:54:21;-1.00;99.90
14741;DHT22;7462;53.530;9.414;2022-12-18T12:56:59;-1.00;99.90
14741;DHT22;7462;53.530;9.414;2022-12-18T12:59:35;-1.00;99.90
14741;DHT22;7462;53.530;9.414;2022-12-18T13:02:11;-1.00;99.90
14741;DHT22;7462;53.530;9.414;2022-12-18T13:04:46;-1.00;99.90
14741;DHT22;7462;53.530;9.414;2022-12-18T13:07:24;-1.00;99.90
14741;DHT22;7462;53.530;9.414;2022-12-18T13:10:22;-1.10;99.90
14741;DHT22;7462;53.530;9.414;2022-12-18T13:12:57;-1.10;99.90
14741;DHT22;7462;53.530;9.414;2022-12-18T13:15:27;-1.00;99.90
14741;DHT22;7462;53.530;9.414;2022-12-18T13:18:10;-1.10;99.90
14741;DHT22;7462;53.530;9.414;2022-12-18T13:20:41;-1.10;99.90
14741;DHT22;7462;53.530;9.414;2022-12-18T13:23:27;-1.10;99.90
14741;DHT22;7462;53.530;9.414;2022-12-18T13:25:57;-1.10;99.90
14741;DHT22;7462;53.530;9.414;2022-12-18T13:28:50;-1.10;99.90
14741;DHT22;7462;53.530;9.414;2022-12-18T13:34:20;-1.10;99.90
14741;DHT22;7462;53.530;9.414;2022-12-18T13:36:55;-1.10;99.90
14741;DHT22;7462;53.530;9.414;2022-12-18T13:39:31;-1.20;99.90
14741;DHT22;7462;53.530;9.414;2022-12-18T13:42:37;-1.10;99.90
14741;DHT22;7462;53.530;9.414;2022-12-18T13:45:42;-1.10;99.90
14741;DHT22;7462;53.530;9.414;2022-12-18T13:48:22;-1.20;99.90
14741;DHT22;7462;53.530;9.414;2022-12-18T13:50:59;-1.20;99.90
14741;DHT22;7462;53.530;9.414;2022-12-18T13:53:33;-1.20;99.90
14741;DHT22;7462;53.530;9.414;2022-12-18T13:56:03;-1.10;99.90
14741;DHT22;7462;53.530;9.414;2022-12-18T13:58:31;-1.00;99.90
14741;DHT22;7462;53.530;9.414;2022-12-18T14:01:00;-1.00;99.90
14741;DHT22;7462;53.530;9.414;2022-12-18T14:03:30;-1.10;99.90
14741;DHT22;7462;53.530;9.414;2022-12-18T14:06:01;-1.10;99.90
14741;DHT22;7462;53.530;9.414;2022-12-18T14:08:38;-1.20;99.90
14741;DHT22;7462;53.530;9.414;2022-12-18T14:11:19;-1.10;99.90
14741;DHT22;7462;53.530;9.414;2022-12-18T14:13:49;-1.20;99.90
14741;DHT22;7462;53.530;9.414;2022-12-18T14:16:18;-1.20;99.90
14741;DHT22;7462;53.530;9.414;2022-12-18T14:18:48;-1.20;99.90
14741;DHT22;7462;53.530;9.414;2022-12-18T14:21:21;-1.20;99.90
14741;DHT22;7462;53.530;9.414;2022-12-18T14:24:03;-1.20;99.90
14741;DHT22;7462;53.530;9.414;2022-12-18T14:26:33;-1.20;99.90
14741;DHT22;7462;53.530;9.414;2022-12-18T14:29:18;-1.10;99.90
14741;DHT22;7462;53.530;9.414;2022-12-18T14:32:04;-1.10;99.90
14741;DHT22;7462;53.530;9.414;2022-12-18T14:34:40;-1.20;99.90
14741;DHT22;7462;53.530;9.414;2022-12-18T14:37:10;-1.30;99.90
14741;DHT22;7462;53.530;9.414;2022-12-18T14:39:38;-1.30;99.90
14741;DHT22;7462;53.530;9.414;2022-12-18T14:42:11;-1.30;99.90
14741;DHT22;7462;53.530;9.414;2022-12-18T14:44:39;-1.30;99.90
14741;DHT22;7462;53.530;9.414;2022-12-18T14:47:27;-1.40;99.90
14741;DHT22;7462;53.530;9.414;2022-12-18T14:49:55;-1.40;99.90
14741;DHT22;7462;53.530;9.414;2022-12-18T14:52:26;-1.40;99.90
14741;DHT22;7462;53.530;9.414;2022-12-18T14:54:55;-1.30;99.90
14741;DHT22;7462;53.530;9.414;2022-12-18T14:57:25;-1.40;99.90
14741;DHT22;7462;53.530;9.414;2022-12-18T15:00:04;-1.40;99.90
14741;DHT22;7462;53.530;9.414;2022-12-18T15:02:35;-1.30;99.90
14741;DHT22;7462;53.530;9.414;2022-12-18T15:05:14;-1.40;99.90
14741;DHT22;7462;53.530;9.414;2022-12-18T15:07:45;-1.40;99.90
14741;DHT22;7462;53.530;9.414;2022-12-18T15:10:15;-1.50;99.90
14741;DHT22;7462;53.530;9.414;2022-12-18T15:12:46;-1.50;99.90
14741;DHT22;7462;53.530;9.414;2022-12-18T15:15:46;-1.50;99.90
14741;DHT22;7462;53.530;9.414;2022-12-18T15:18:16;-1.50;99.90
14741;DHT22;7462;53.530;9.414;2022-12-18T15:20:48;-1.50;99.90
14741;DHT22;7462;53.530;9.414;2022-12-18T15:23:19;-1.50;99.90
14741;DHT22;7462;53.530;9.414;2022-12-18T15:25:54;-1.60;99.90
14741;DHT22;7462;53.530;9.414;2022-12-18T15:28:25;-1.60;99.90
14741;DHT22;7462;53.530;9.414;2022-12-18T15:31:04;-1.60;99.90
14741;DHT22;7462;53.530;9.414;2022-12-18T15:33:34;-1.60;99.90
14741;DHT22;7462;53.530;9.414;2022-12-18T15:36:04;-1.50;99.90
14741;DHT22;7462;53.530;9.414;2022-12-18T15:38:32;-1.50;99.90
14741;DHT22;7462;53.530;9.414;2022-12-18T15:41:01;-1.60;99.90
14741;DHT22;7462;53.530;9.414;2022-12-18T15:43:31;-1.60;99.90
14741;DHT22;7462;53.530;9.414;2022-12-18T15:46:02;-1.60;99.90
14741;DHT22;7462;53.530;9.414;2022-12-18T15:48:33;-1.60;99.90
14741;DHT22;7462;53.530;9.414;2022-12-18T15:51:01;-1.50;99.90
14741;DHT22;7462;53.530;9.414;2022-12-18T15:53:32;-1.50;99.90
14741;DHT22;7462;53.530;9.414;2022-12-18T15:56:00;-1.60;99.90
14741;DHT22;7462;53.530;9.414;2022-12-18T15:58:47;-1.60;99.90
14741;DHT22;7462;53.530;9.414;2022-12-18T16:01:18;-1.60;99.90
14741;DHT22;7462;53.530;9.414;2022-12-18T16:03:47;-1.60;99.90
14741;DHT22;7462;53.530;9.414;2022-12-18T16:06:15;-1.60;99.90
14741;DHT22;7462;53.530;9.414;2022-12-18T16:08:43;-1.50;99.90
14741;DHT22;7462;53.530;9.414;2022-12-18T16:11:20;-1.50;99.90
14741;DHT22;7462;53.530;9.414;2022-12-18T16:14:15;-1.60;99.90
14741;DHT22;7462;53.530;9.414;2022-12-18T16:16:44;-1.60;99.90
14741;DHT22;7462;53.530;9.414;2022-12-18T16:19:12;-1.60;99.90
14741;DHT22;7462;53.530;9.414;2022-12-18T16:21:40;-1.60;99.90